Back to top

Boise, ID weather

Boise Air Terminal/Gowen Field, Boise, ID: 7/22/2019 13:53
Visibility10 statute milesclear sky
View 7-Day Forecast
Area Summary
Sky/CloudsSky Clear
Weather [last 24 hours]None
Pressure29.98 in.Hg (1015 hPa)
Dew Point48.9 °F (9.4 °C)
Relative Humidity 21 %
Temperature95 °F (35 °C)red thermometer
Reading TimeMinimum to Maximum Temperature
6-hr ending 7/22@11:5373 °F to 91 °F (22.8 °C to 32.8 °C)
6-hr ending 7/22@05:5370 °F to 80.1 °F (21.1 °C to 26.7 °C)
6-hr ending 7/21@23:5379 °F to 96.1 °F (26.1 °C to 35.6 °C)
6-hr ending 7/21@17:5381 °F to 97 °F (27.2 °C to 36.1 °C)
24-hr ending 7/22@00:5357 °F to 97 °F (13.9 °C to 36.1 °C)
Wind6.9 MPH (6 KT) green arrow pointing 292.5 degrees
Wind FromWest/Northwest (290 Degrees)
Twilight Begins05:49Sunshine Yesterday
Sunrise06:23N/A
Sunset21:19
Twilight Ends21:53
METARKBOI 221953Z 29006KT 10SM CLR 35/09 A2998 RMK AO2 SLP115 T03500094
Tags: